CEB395 RPLL-RPMY
Flight info
| Callsign | CEB395 |
|---|---|
| Flight time | 1h 20m |
| Altitude | 37000 |
| Route | IPAT2R IPATA W25 BATAY W8 MCT W6A SAGOL SAGO4A |
| Aircraft | A20N/M-SDE2E3FGHIJ1RWXY/C |
Departure
| Time | 2026-05-07 02:49 |
|---|---|
| Airport | Ninoy Aquino International Airport (RPLL) |
Arrival
| Time | 2026-05-07 04:09 |
|---|---|
| Airport | Laguindingan International Airport (RPMY) |
| Time | Latitude | Longitude | Altitude | Speed | Heading |
|---|---|---|---|---|---|
| 2026-05-07 02:15 | 14.51664 | 121.01688 | 84 ft | 0 kts | 202° |
| 2026-05-07 02:27 | 14.51668 | 121.01690 | 84 ft | 2 kts | 202° |
| 2026-05-07 02:28 | 14.51682 | 121.01695 | 84 ft | 2 kts | 202° |
| 2026-05-07 02:28 | 14.51696 | 121.01701 | 84 ft | 2 kts | 202° |
| 2026-05-07 02:28 | 14.51709 | 121.01708 | 84 ft | 2 kts | 202° |
| 2026-05-07 02:28 | 14.51723 | 121.01714 | 84 ft | 2 kts | 202° |
| 2026-05-07 02:29 | 14.51737 | 121.01720 | 84 ft | 2 kts | 202° |
| 2026-05-07 02:29 | 14.51744 | 121.01723 | 84 ft | 1 kts | 192° |
| 2026-05-07 02:29 | 14.51751 | 121.01722 | 84 ft | 0 kts | 135° |
| 2026-05-07 02:29 | 14.51755 | 121.01717 | 84 ft | 0 kts | 134° |
| 2026-05-07 02:38 | 14.51751 | 121.01721 | 84 ft | 1 kts | 134° |
| 2026-05-07 02:38 | 14.51738 | 121.01735 | 84 ft | 3 kts | 134° |
| 2026-05-07 02:38 | 14.51715 | 121.01759 | 84 ft | 5 kts | 137° |
| 2026-05-07 02:38 | 14.51674 | 121.01782 | 84 ft | 7 kts | 167° |
| 2026-05-07 02:39 | 14.51618 | 121.01767 | 84 ft | 9 kts | 215° |
| 2026-05-07 02:39 | 14.51562 | 121.01714 | 84 ft | 11 kts | 225° |
| 2026-05-07 02:39 | 14.51502 | 121.01649 | 84 ft | 13 kts | 226° |
| 2026-05-07 02:39 | 14.51414 | 121.01637 | 84 ft | 14 kts | 145° |
| 2026-05-07 02:40 | 14.51339 | 121.01712 | 84 ft | 15 kts | 134° |
| 2026-05-07 02:40 | 14.51259 | 121.01796 | 84 ft | 16 kts | 135° |
| 2026-05-07 02:40 | 14.51230 | 121.01825 | 84 ft | 17 kts | 135° |
| 2026-05-07 02:40 | 14.51173 | 121.01883 | 84 ft | 17 kts | 135° |
| 2026-05-07 02:41 | 14.51085 | 121.01975 | 84 ft | 0 kts | 135° |
| 2026-05-07 02:42 | 14.51081 | 121.01977 | 84 ft | 1 kts | 137° |
| 2026-05-07 02:43 | 14.51063 | 121.01988 | 84 ft | 4 kts | 169° |
| 2026-05-07 02:43 | 14.51032 | 121.01970 | 84 ft | 6 kts | 232° |
| 2026-05-07 02:43 | 14.51002 | 121.01919 | 84 ft | 9 kts | 239° |
| 2026-05-07 02:43 | 14.50964 | 121.01849 | 84 ft | 12 kts | 240° |
| 2026-05-07 02:44 | 14.50912 | 121.01759 | 84 ft | 16 kts | 239° |
| 2026-05-07 02:44 | 14.50853 | 121.01649 | 84 ft | 18 kts | 240° |
| 2026-05-07 02:44 | 14.50783 | 121.01525 | 84 ft | 20 kts | 240° |
| 2026-05-07 02:44 | 14.50709 | 121.01391 | 84 ft | 22 kts | 240° |
| 2026-05-07 02:45 | 14.50630 | 121.01248 | 84 ft | 23 kts | 240° |
| 2026-05-07 02:45 | 14.50545 | 121.01096 | 84 ft | 24 kts | 240° |
| 2026-05-07 02:45 | 14.50458 | 121.00940 | 84 ft | 25 kts | 240° |
| 2026-05-07 02:45 | 14.50369 | 121.00779 | 84 ft | 26 kts | 240° |
| 2026-05-07 02:46 | 14.50277 | 121.00613 | 84 ft | 26 kts | 240° |
| 2026-05-07 02:46 | 14.50183 | 121.00446 | 84 ft | 27 kts | 240° |
| 2026-05-07 02:46 | 14.50101 | 121.00297 | 84 ft | 21 kts | 240° |
| 2026-05-07 02:46 | 14.50027 | 121.00166 | 84 ft | 21 kts | 240° |
| 2026-05-07 02:47 | 14.49964 | 121.00050 | 84 ft | 15 kts | 241° |
| 2026-05-07 02:47 | 14.49896 | 120.99970 | 84 ft | 13 kts | 188° |
| 2026-05-07 02:47 | 14.49813 | 121.00013 | 84 ft | 14 kts | 117° |
| 2026-05-07 02:47 | 14.49819 | 121.00073 | 84 ft | 0 kts | 61° |
| 2026-05-07 02:48 | 14.49826 | 121.00085 | 84 ft | 10 kts | 61° |
| 2026-05-07 02:48 | 14.49998 | 121.00403 | 84 ft | 89 kts | 59° |
| 2026-05-07 02:48 | 14.50417 | 121.01154 | 84 ft | 152 kts | 60° |
| 2026-05-07 02:49 | 14.51037 | 121.02229 | 268 ft | 187 kts | 62° |
| 2026-05-07 02:49 | 14.51683 | 121.03387 | 1012 ft | 187 kts | 62° |
| 2026-05-07 02:49 | 14.52288 | 121.04492 | 2008 ft | 176 kts | 60° |
| 2026-05-07 02:49 | 14.52904 | 121.05605 | 2598 ft | 184 kts | 62° |
| 2026-05-07 02:50 | 14.53545 | 121.06812 | 2986 ft | 201 kts | 60° |
| 2026-05-07 02:50 | 14.54264 | 121.08124 | 3354 ft | 220 kts | 59° |
| 2026-05-07 02:50 | 14.55067 | 121.09556 | 3709 ft | 243 kts | 60° |
| 2026-05-07 02:50 | 14.55932 | 121.11124 | 4203 ft | 260 kts | 59° |
| 2026-05-07 02:51 | 14.56748 | 121.12832 | 4883 ft | 272 kts | 72° |
| 2026-05-07 02:51 | 14.56737 | 121.14779 | 5720 ft | 278 kts | 107° |
| 2026-05-07 02:51 | 14.55715 | 121.16453 | 6493 ft | 288 kts | 134° |
| 2026-05-07 02:51 | 14.54203 | 121.17817 | 7253 ft | 294 kts | 139° |
| 2026-05-07 02:52 | 14.52624 | 121.19190 | 7993 ft | 300 kts | 138° |
| 2026-05-07 02:52 | 14.51037 | 121.20599 | 8788 ft | 304 kts | 137° |
| 2026-05-07 02:52 | 14.49458 | 121.22038 | 9544 ft | 309 kts | 137° |
| 2026-05-07 02:52 | 14.47844 | 121.23537 | 10312 ft | 314 kts | 137° |
| 2026-05-07 02:53 | 14.46200 | 121.25080 | 10817 ft | 329 kts | 138° |
| 2026-05-07 02:53 | 14.44460 | 121.26715 | 11188 ft | 347 kts | 138° |
| 2026-05-07 02:53 | 14.42648 | 121.28419 | 11527 ft | 365 kts | 138° |
| 2026-05-07 02:53 | 14.40727 | 121.30228 | 11838 ft | 383 kts | 138° |
| 2026-05-07 02:54 | 14.38712 | 121.32129 | 12198 ft | 398 kts | 138° |
| 2026-05-07 02:54 | 14.36660 | 121.34068 | 12838 ft | 404 kts | 139° |
| 2026-05-07 02:54 | 14.34579 | 121.36034 | 13593 ft | 406 kts | 139° |
| 2026-05-07 02:54 | 14.32501 | 121.37998 | 14314 ft | 409 kts | 139° |
| 2026-05-07 02:55 | 14.30420 | 121.39963 | 15010 ft | 411 kts | 139° |
| 2026-05-07 02:55 | 14.28313 | 121.41953 | 15702 ft | 414 kts | 139° |
| 2026-05-07 02:55 | 14.26198 | 121.43951 | 16383 ft | 417 kts | 139° |
| 2026-05-07 02:55 | 14.24054 | 121.45974 | 17059 ft | 419 kts | 139° |
| 2026-05-07 02:56 | 14.21887 | 121.48019 | 17726 ft | 422 kts | 139° |
| 2026-05-07 02:56 | 14.19725 | 121.50062 | 18379 ft | 425 kts | 139° |
| 2026-05-07 02:56 | 14.19230 | 121.50530 | 18526 ft | 425 kts | 139° |
| 2026-05-07 02:56 | 14.17272 | 121.52380 | 19098 ft | 427 kts | 139° |
| 2026-05-07 02:57 | 14.15088 | 121.54443 | 19721 ft | 430 kts | 139° |
| 2026-05-07 02:57 | 14.12892 | 121.56515 | 20332 ft | 432 kts | 139° |
| 2026-05-07 02:57 | 14.10657 | 121.58623 | 20939 ft | 435 kts | 139° |
| 2026-05-07 02:57 | 14.08444 | 121.60709 | 21526 ft | 437 kts | 139° |
| 2026-05-07 02:58 | 14.06207 | 121.62828 | 22099 ft | 440 kts | 139° |
| 2026-05-07 02:58 | 14.03927 | 121.64980 | 22670 ft | 443 kts | 139° |
| 2026-05-07 02:58 | 14.01669 | 121.67107 | 23218 ft | 445 kts | 139° |
| 2026-05-07 02:58 | 13.99396 | 121.69264 | 23748 ft | 447 kts | 139° |
| 2026-05-07 02:59 | 13.97085 | 121.71456 | 24260 ft | 450 kts | 139° |
| 2026-05-07 02:59 | 13.94804 | 121.73611 | 24738 ft | 452 kts | 139° |
| 2026-05-07 02:59 | 13.92476 | 121.75806 | 25203 ft | 455 kts | 139° |
| 2026-05-07 02:59 | 13.90133 | 121.78010 | 25650 ft | 457 kts | 139° |
| 2026-05-07 03:00 | 13.87785 | 121.80180 | 26079 ft | 459 kts | 140° |
| 2026-05-07 03:00 | 13.85311 | 121.82256 | 26598 ft | 458 kts | 143° |
| 2026-05-07 03:00 | 13.82760 | 121.84210 | 27213 ft | 455 kts | 144° |
| 2026-05-07 03:00 | 13.80226 | 121.86118 | 27805 ft | 452 kts | 144° |
| 2026-05-07 03:01 | 13.77705 | 121.88014 | 28351 ft | 450 kts | 144° |
| 2026-05-07 03:01 | 13.75197 | 121.89902 | 28871 ft | 449 kts | 144° |
| 2026-05-07 03:01 | 13.72703 | 121.91779 | 29378 ft | 448 kts | 144° |
| 2026-05-07 03:01 | 13.70206 | 121.93660 | 29882 ft | 446 kts | 144° |
| 2026-05-07 03:02 | 13.67720 | 121.95534 | 30376 ft | 444 kts | 144° |
| 2026-05-07 03:02 | 13.65228 | 121.97411 | 30854 ft | 443 kts | 144° |
| 2026-05-07 03:02 | 13.62747 | 121.99281 | 31313 ft | 442 kts | 144° |
| 2026-05-07 03:02 | 13.60266 | 122.01150 | 31759 ft | 441 kts | 144° |
| 2026-05-07 03:03 | 13.57835 | 122.02982 | 32176 ft | 440 kts | 144° |
| 2026-05-07 03:03 | 13.55378 | 122.04832 | 32588 ft | 439 kts | 144° |
| 2026-05-07 03:03 | 13.52912 | 122.06689 | 32988 ft | 438 kts | 144° |
| 2026-05-07 03:03 | 13.50476 | 122.08522 | 33367 ft | 437 kts | 144° |
| 2026-05-07 03:04 | 13.48035 | 122.10358 | 33730 ft | 436 kts | 144° |
| 2026-05-07 03:04 | 13.45579 | 122.12206 | 34080 ft | 436 kts | 144° |
| 2026-05-07 03:04 | 13.43154 | 122.14030 | 34425 ft | 435 kts | 144° |
| 2026-05-07 03:04 | 13.40712 | 122.15867 | 34769 ft | 434 kts | 144° |
| 2026-05-07 03:05 | 13.38301 | 122.17680 | 35095 ft | 433 kts | 144° |
| 2026-05-07 03:05 | 13.35897 | 122.19486 | 35403 ft | 432 kts | 144° |
| 2026-05-07 03:05 | 13.33466 | 122.21313 | 35705 ft | 431 kts | 144° |
| 2026-05-07 03:05 | 13.31068 | 122.23114 | 35994 ft | 430 kts | 144° |
| 2026-05-07 03:06 | 13.28670 | 122.24915 | 36271 ft | 429 kts | 144° |
| 2026-05-07 03:06 | 13.26248 | 122.26733 | 36533 ft | 429 kts | 144° |
| 2026-05-07 03:06 | 13.23849 | 122.28533 | 36765 ft | 429 kts | 144° |
| 2026-05-07 03:06 | 13.21469 | 122.30318 | 36983 ft | 429 kts | 144° |
| 2026-05-07 03:07 | 13.19060 | 122.32124 | 37182 ft | 429 kts | 144° |
| 2026-05-07 03:07 | 13.16656 | 122.33928 | 37352 ft | 430 kts | 144° |
| 2026-05-07 03:07 | 13.14222 | 122.35752 | 37512 ft | 432 kts | 144° |
| 2026-05-07 03:07 | 13.11802 | 122.37566 | 37666 ft | 433 kts | 144° |
| 2026-05-07 03:08 | 13.09385 | 122.39378 | 37815 ft | 434 kts | 144° |
| 2026-05-07 03:08 | 13.06967 | 122.41190 | 37951 ft | 435 kts | 144° |
| 2026-05-07 03:08 | 13.04502 | 122.43037 | 38076 ft | 436 kts | 144° |
| 2026-05-07 03:08 | 13.02070 | 122.44856 | 38188 ft | 438 kts | 144° |
| 2026-05-07 03:09 | 12.99618 | 122.46692 | 38290 ft | 440 kts | 144° |
| 2026-05-07 03:09 | 12.97126 | 122.48556 | 38389 ft | 442 kts | 144° |
| 2026-05-07 03:09 | 12.92177 | 122.52258 | 38600 ft | 445 kts | 144° |
| 2026-05-07 03:10 | 12.89668 | 122.54133 | 38729 ft | 445 kts | 144° |
| 2026-05-07 03:10 | 12.87153 | 122.56005 | 38857 ft | 446 kts | 144° |
| 2026-05-07 03:10 | 12.82154 | 122.59721 | 38879 ft | 447 kts | 144° |
| 2026-05-07 03:11 | 12.77131 | 122.63466 | 38883 ft | 447 kts | 144° |
| 2026-05-07 03:11 | 12.72140 | 122.67198 | 38884 ft | 447 kts | 144° |
| 2026-05-07 03:12 | 12.67116 | 122.70988 | 38884 ft | 447 kts | 144° |
| 2026-05-07 03:12 | 12.62122 | 122.74706 | 38885 ft | 447 kts | 145° |
| 2026-05-07 03:13 | 12.57091 | 122.78447 | 38885 ft | 447 kts | 145° |
| 2026-05-07 03:13 | 12.52071 | 122.82185 | 38885 ft | 447 kts | 144° |
| 2026-05-07 03:14 | 12.47054 | 122.85925 | 38885 ft | 447 kts | 144° |
| 2026-05-07 03:15 | 12.39544 | 122.91524 | 38885 ft | 447 kts | 144° |
| 2026-05-07 03:15 | 12.34543 | 122.95249 | 38885 ft | 447 kts | 144° |
| 2026-05-07 03:16 | 12.29500 | 122.98993 | 38885 ft | 447 kts | 144° |
| 2026-05-07 03:16 | 12.24477 | 123.02713 | 38885 ft | 447 kts | 144° |
| 2026-05-07 03:17 | 12.19460 | 123.06435 | 38885 ft | 448 kts | 144° |
| 2026-05-07 03:17 | 12.14437 | 123.10163 | 38885 ft | 448 kts | 144° |
| 2026-05-07 03:18 | 12.09418 | 123.13887 | 38885 ft | 448 kts | 144° |
| 2026-05-07 03:18 | 12.04387 | 123.17620 | 38885 ft | 448 kts | 144° |
| 2026-05-07 03:19 | 11.99359 | 123.21348 | 38885 ft | 448 kts | 144° |
| 2026-05-07 03:19 | 11.94323 | 123.25081 | 38885 ft | 448 kts | 144° |
| 2026-05-07 03:20 | 11.89300 | 123.28802 | 38885 ft | 448 kts | 144° |
| 2026-05-07 03:20 | 11.84286 | 123.32494 | 38885 ft | 448 kts | 144° |
| 2026-05-07 03:21 | 11.79228 | 123.36224 | 38885 ft | 448 kts | 144° |
| 2026-05-07 03:21 | 11.74210 | 123.39932 | 38885 ft | 448 kts | 144° |
| 2026-05-07 03:22 | 11.69182 | 123.43649 | 38885 ft | 448 kts | 144° |
| 2026-05-07 03:22 | 11.64144 | 123.47369 | 38885 ft | 448 kts | 144° |
| 2026-05-07 03:23 | 11.59107 | 123.51091 | 38885 ft | 448 kts | 144° |
| 2026-05-07 03:23 | 11.54101 | 123.54789 | 38885 ft | 448 kts | 144° |
| 2026-05-07 03:24 | 11.49062 | 123.58511 | 38885 ft | 448 kts | 144° |
| 2026-05-07 03:24 | 11.44040 | 123.62218 | 38882 ft | 448 kts | 144° |
| 2026-05-07 03:25 | 11.38985 | 123.65953 | 38875 ft | 448 kts | 144° |
| 2026-05-07 03:25 | 11.33978 | 123.69678 | 38867 ft | 448 kts | 144° |
| 2026-05-07 03:26 | 11.28945 | 123.73405 | 38861 ft | 448 kts | 144° |
| 2026-05-07 03:26 | 11.23927 | 123.77104 | 38859 ft | 448 kts | 144° |
| 2026-05-07 03:27 | 11.18803 | 123.80689 | 38859 ft | 448 kts | 149° |
| 2026-05-07 03:27 | 11.13285 | 123.83539 | 38859 ft | 447 kts | 158° |
| 2026-05-07 03:28 | 11.07405 | 123.85526 | 38859 ft | 447 kts | 166° |
| 2026-05-07 03:28 | 11.01316 | 123.86726 | 38859 ft | 447 kts | 170° |
| 2026-05-07 03:29 | 10.95262 | 123.87981 | 38853 ft | 447 kts | 161° |
| 2026-05-07 03:29 | 10.89540 | 123.90378 | 38857 ft | 447 kts | 156° |
| 2026-05-07 03:30 | 10.83826 | 123.92915 | 38858 ft | 448 kts | 156° |
| 2026-05-07 03:30 | 10.78133 | 123.95408 | 38858 ft | 447 kts | 157° |
| 2026-05-07 03:31 | 10.72442 | 123.97884 | 38858 ft | 447 kts | 157° |
| 2026-05-07 03:31 | 10.66726 | 124.00366 | 38858 ft | 447 kts | 157° |
| 2026-05-07 03:32 | 10.60996 | 124.02856 | 38858 ft | 447 kts | 157° |
| 2026-05-07 03:32 | 10.55279 | 124.05340 | 38848 ft | 448 kts | 157° |
| 2026-05-07 03:32 | 10.52433 | 124.06602 | 38595 ft | 447 kts | 155° |
| 2026-05-07 03:33 | 10.49666 | 124.07958 | 38347 ft | 444 kts | 154° |
| 2026-05-07 03:33 | 10.46903 | 124.09354 | 38096 ft | 441 kts | 153° |
| 2026-05-07 03:33 | 10.44182 | 124.10729 | 37845 ft | 439 kts | 154° |
| 2026-05-07 03:33 | 10.41449 | 124.12103 | 37596 ft | 437 kts | 154° |
| 2026-05-07 03:34 | 10.38732 | 124.13463 | 37340 ft | 436 kts | 154° |
| 2026-05-07 03:34 | 10.36007 | 124.14822 | 37015 ft | 436 kts | 154° |
| 2026-05-07 03:34 | 10.33292 | 124.16174 | 36594 ft | 437 kts | 154° |
| 2026-05-07 03:34 | 10.30547 | 124.17538 | 36022 ft | 438 kts | 154° |
| 2026-05-07 03:35 | 10.27842 | 124.18875 | 35419 ft | 438 kts | 155° |
| 2026-05-07 03:35 | 10.25019 | 124.20058 | 34767 ft | 439 kts | 161° |
| 2026-05-07 03:35 | 10.22111 | 124.20940 | 34099 ft | 440 kts | 167° |
| 2026-05-07 03:35 | 10.19114 | 124.21515 | 33401 ft | 442 kts | 172° |
| 2026-05-07 03:36 | 10.16098 | 124.21769 | 32718 ft | 443 kts | 178° |
| 2026-05-07 03:36 | 10.13005 | 124.21700 | 32022 ft | 444 kts | 184° |
| 2026-05-07 03:36 | 10.09967 | 124.21315 | 31312 ft | 445 kts | 189° |
| 2026-05-07 03:36 | 10.06933 | 124.20771 | 30597 ft | 446 kts | 190° |
| 2026-05-07 03:37 | 10.03881 | 124.20194 | 29863 ft | 447 kts | 191° |
| 2026-05-07 03:37 | 10.00834 | 124.19617 | 29102 ft | 448 kts | 191° |
| 2026-05-07 03:37 | 9.97796 | 124.19183 | 28319 ft | 450 kts | 183° |
| 2026-05-07 03:37 | 9.94686 | 124.19292 | 27526 ft | 451 kts | 173° |
| 2026-05-07 03:38 | 9.91633 | 124.19992 | 26753 ft | 452 kts | 162° |
| 2026-05-07 03:38 | 9.88756 | 124.21231 | 25936 ft | 454 kts | 154° |
| 2026-05-07 03:38 | 9.85963 | 124.22684 | 25202 ft | 452 kts | 153° |
| 2026-05-07 03:38 | 9.83196 | 124.24168 | 24670 ft | 446 kts | 153° |
| 2026-05-07 03:39 | 9.80490 | 124.25619 | 24125 ft | 442 kts | 153° |
| 2026-05-07 03:39 | 9.77782 | 124.27063 | 23572 ft | 437 kts | 153° |
| 2026-05-07 03:39 | 9.75119 | 124.28476 | 23017 ft | 433 kts | 153° |
| 2026-05-07 03:39 | 9.72456 | 124.29884 | 22458 ft | 430 kts | 153° |
| 2026-05-07 03:40 | 9.69825 | 124.31272 | 21904 ft | 426 kts | 153° |
| 2026-05-07 03:40 | 9.67223 | 124.32645 | 21340 ft | 423 kts | 153° |
| 2026-05-07 03:40 | 9.64652 | 124.34000 | 20765 ft | 421 kts | 153° |
| 2026-05-07 03:40 | 9.62024 | 124.35384 | 20481 ft | 425 kts | 153° |
| 2026-05-07 03:41 | 9.59413 | 124.36758 | 19969 ft | 426 kts | 154° |
| 2026-05-07 03:41 | 9.56697 | 124.37862 | 19267 ft | 421 kts | 167° |
| 2026-05-07 03:41 | 9.53820 | 124.38243 | 18944 ft | 414 kts | 178° |
| 2026-05-07 03:41 | 9.50962 | 124.38382 | 18880 ft | 415 kts | 179° |
| 2026-05-07 03:42 | 9.48083 | 124.38506 | 18875 ft | 416 kts | 178° |
| 2026-05-07 03:42 | 9.45191 | 124.38642 | 18872 ft | 416 kts | 178° |
| 2026-05-07 03:42 | 9.42339 | 124.38779 | 18825 ft | 413 kts | 178° |
| 2026-05-07 03:42 | 9.39455 | 124.38928 | 18237 ft | 413 kts | 178° |
| 2026-05-07 03:43 | 9.36592 | 124.39084 | 17190 ft | 420 kts | 178° |
| 2026-05-07 03:43 | 9.33687 | 124.39246 | 16307 ft | 421 kts | 178° |
| 2026-05-07 03:43 | 9.30789 | 124.39410 | 15606 ft | 417 kts | 178° |
| 2026-05-07 03:43 | 9.27937 | 124.39572 | 14918 ft | 413 kts | 178° |
| 2026-05-07 03:44 | 9.25092 | 124.39734 | 14212 ft | 409 kts | 178° |
| 2026-05-07 03:44 | 9.22275 | 124.39895 | 13510 ft | 406 kts | 178° |
| 2026-05-07 03:44 | 9.19482 | 124.40054 | 12814 ft | 403 kts | 178° |
| 2026-05-07 03:44 | 9.16671 | 124.40215 | 12111 ft | 400 kts | 178° |
| 2026-05-07 03:45 | 9.13927 | 124.40372 | 11497 ft | 395 kts | 178° |
| 2026-05-07 03:45 | 9.11213 | 124.40530 | 11028 ft | 386 kts | 178° |
| 2026-05-07 03:45 | 9.08599 | 124.40686 | 10578 ft | 378 kts | 178° |
| 2026-05-07 03:45 | 9.06004 | 124.40839 | 10177 ft | 369 kts | 178° |
| 2026-05-07 03:46 | 9.03487 | 124.41067 | 9966 ft | 356 kts | 170° |
| 2026-05-07 03:46 | 9.01244 | 124.41951 | 9736 ft | 348 kts | 150° |
| 2026-05-07 03:46 | 8.99281 | 124.43336 | 9398 ft | 341 kts | 144° |
| 2026-05-07 03:46 | 8.97426 | 124.44769 | 9086 ft | 333 kts | 144° |
| 2026-05-07 03:47 | 8.95596 | 124.46187 | 8771 ft | 325 kts | 144° |
| 2026-05-07 03:47 | 8.93820 | 124.47550 | 8401 ft | 320 kts | 144° |
| 2026-05-07 03:47 | 8.92071 | 124.48886 | 8043 ft | 315 kts | 144° |
| 2026-05-07 03:47 | 8.90320 | 124.50214 | 7687 ft | 311 kts | 144° |
| 2026-05-07 03:48 | 8.88599 | 124.51510 | 7337 ft | 306 kts | 144° |
| 2026-05-07 03:48 | 8.86911 | 124.52772 | 6997 ft | 301 kts | 144° |
| 2026-05-07 03:48 | 8.85242 | 124.54020 | 6608 ft | 299 kts | 144° |
| 2026-05-07 03:48 | 8.83569 | 124.55274 | 6200 ft | 297 kts | 144° |
| 2026-05-07 03:49 | 8.81946 | 124.56497 | 5847 ft | 293 kts | 144° |
| 2026-05-07 03:49 | 8.80313 | 124.57728 | 5508 ft | 289 kts | 145° |
| 2026-05-07 03:49 | 8.78722 | 124.58907 | 5187 ft | 285 kts | 145° |
| 2026-05-07 03:49 | 8.77116 | 124.60098 | 4865 ft | 281 kts | 144° |
| 2026-05-07 03:50 | 8.75471 | 124.61132 | 4539 ft | 277 kts | 155° |
| 2026-05-07 03:50 | 8.73725 | 124.61916 | 4232 ft | 274 kts | 159° |
| 2026-05-07 03:50 | 8.71976 | 124.62633 | 3930 ft | 271 kts | 159° |
| 2026-05-07 03:50 | 8.70249 | 124.63348 | 3633 ft | 268 kts | 159° |
| 2026-05-07 03:51 | 8.68524 | 124.64049 | 3340 ft | 266 kts | 161° |
| 2026-05-07 03:51 | 8.66798 | 124.64629 | 3052 ft | 263 kts | 166° |
| 2026-05-07 03:51 | 8.65037 | 124.64892 | 2892 ft | 249 kts | 191° |
| 2026-05-07 03:51 | 8.63566 | 124.64185 | 2888 ft | 225 kts | 228° |
| 2026-05-07 03:52 | 8.62722 | 124.62896 | 2898 ft | 221 kts | 253° |
| 2026-05-07 03:52 | 8.62395 | 124.61387 | 2784 ft | 219 kts | 265° |
| 2026-05-07 03:52 | 8.62277 | 124.59870 | 2653 ft | 218 kts | 269° |
| 2026-05-07 03:52 | 8.62204 | 124.58324 | 2459 ft | 218 kts | 269° |
| 2026-05-07 03:53 | 8.62103 | 124.56821 | 2168 ft | 212 kts | 267° |
| 2026-05-07 03:53 | 8.61978 | 124.55380 | 1901 ft | 201 kts | 268° |
| 2026-05-07 03:53 | 8.61868 | 124.54037 | 1752 ft | 182 kts | 267° |
| 2026-05-07 03:53 | 8.61769 | 124.52811 | 1490 ft | 169 kts | 269° |
| 2026-05-07 03:54 | 8.61683 | 124.51668 | 1234 ft | 158 kts | 268° |
| 2026-05-07 03:54 | 8.61609 | 124.50600 | 1000 ft | 147 kts | 269° |
| 2026-05-07 03:54 | 8.61519 | 124.49576 | 806 ft | 147 kts | 267° |
| 2026-05-07 03:54 | 8.61438 | 124.48547 | 609 ft | 147 kts | 268° |
| 2026-05-07 03:55 | 8.61365 | 124.47514 | 406 ft | 147 kts | 268° |
| 2026-05-07 03:55 | 8.61283 | 124.46482 | 228 ft | 147 kts | 270° |
| 2026-05-07 03:55 | 8.61220 | 124.45508 | 200 ft | 126 kts | 278° |
| 2026-05-07 03:55 | 8.61198 | 124.44568 | 684 ft | 144 kts | 267° |
| 2026-05-07 03:56 | 8.61036 | 124.43529 | 1384 ft | 156 kts | 263° |
| 2026-05-07 03:56 | 8.60786 | 124.42419 | 1940 ft | 172 kts | 260° |
| 2026-05-07 03:56 | 8.60642 | 124.41173 | 2464 ft | 187 kts | 285° |
| 2026-05-07 03:56 | 8.61368 | 124.40089 | 3020 ft | 200 kts | 330° |
| 2026-05-07 03:57 | 8.62743 | 124.39840 | 3600 ft | 218 kts | 10° |
| 2026-05-07 03:57 | 8.64062 | 124.40614 | 3874 ft | 232 kts | 49° |
| 2026-05-07 03:57 | 8.64757 | 124.42104 | 3905 ft | 237 kts | 73° |
| 2026-05-07 03:57 | 8.65139 | 124.43745 | 3841 ft | 238 kts | 74° |
| 2026-05-07 03:58 | 8.65564 | 124.45306 | 3707 ft | 225 kts | 70° |
| 2026-05-07 03:58 | 8.66069 | 124.46770 | 3641 ft | 211 kts | 66° |
| 2026-05-07 03:58 | 8.66586 | 124.48074 | 3583 ft | 187 kts | 64° |
| 2026-05-07 03:58 | 8.67072 | 124.49204 | 3444 ft | 168 kts | 62° |
| 2026-05-07 03:59 | 8.67536 | 124.50239 | 3319 ft | 160 kts | 62° |
| 2026-05-07 03:59 | 8.68011 | 124.51266 | 3315 ft | 160 kts | 61° |
| 2026-05-07 03:59 | 8.68485 | 124.52282 | 3308 ft | 160 kts | 61° |
| 2026-05-07 03:59 | 8.68960 | 124.53301 | 3306 ft | 160 kts | 62° |
| 2026-05-07 04:00 | 8.69434 | 124.54327 | 3304 ft | 160 kts | 61° |
| 2026-05-07 04:00 | 8.69910 | 124.55352 | 3304 ft | 160 kts | 61° |
| 2026-05-07 04:00 | 8.70386 | 124.56375 | 3304 ft | 160 kts | 61° |
| 2026-05-07 04:00 | 8.70861 | 124.57394 | 3304 ft | 160 kts | 61° |
| 2026-05-07 04:01 | 8.71335 | 124.58409 | 3303 ft | 160 kts | 61° |
| 2026-05-07 04:01 | 8.71817 | 124.59440 | 3303 ft | 160 kts | 61° |
| 2026-05-07 04:01 | 8.72291 | 124.60454 | 3303 ft | 160 kts | 61° |
| 2026-05-07 04:01 | 8.72641 | 124.61536 | 3297 ft | 164 kts | 81° |
| 2026-05-07 04:02 | 8.72500 | 124.62669 | 3295 ft | 166 kts | 110° |
| 2026-05-07 04:02 | 8.71855 | 124.63634 | 3170 ft | 166 kts | 139° |
| 2026-05-07 04:02 | 8.70863 | 124.64185 | 3037 ft | 163 kts | 167° |
| 2026-05-07 04:02 | 8.69744 | 124.64239 | 2907 ft | 160 kts | 189° |
| 2026-05-07 04:03 | 8.68624 | 124.64217 | 2782 ft | 162 kts | 174° |
| 2026-05-07 04:03 | 8.67530 | 124.64459 | 2667 ft | 163 kts | 167° |
| 2026-05-07 04:03 | 8.66433 | 124.64752 | 2541 ft | 162 kts | 169° |
| 2026-05-07 04:03 | 8.65331 | 124.64835 | 2404 ft | 159 kts | 191° |
| 2026-05-07 04:04 | 8.64319 | 124.64454 | 2270 ft | 154 kts | 218° |
| 2026-05-07 04:04 | 8.63569 | 124.63709 | 2149 ft | 151 kts | 234° |
| 2026-05-07 04:04 | 8.62971 | 124.62849 | 2022 ft | 148 kts | 248° |
| 2026-05-07 04:04 | 8.62640 | 124.61871 | 1899 ft | 146 kts | 260° |
| 2026-05-07 04:05 | 8.62464 | 124.60866 | 1817 ft | 144 kts | 265° |
| 2026-05-07 04:05 | 8.62345 | 124.59854 | 1824 ft | 145 kts | 267° |
| 2026-05-07 04:05 | 8.62249 | 124.58845 | 1818 ft | 145 kts | 268° |
| 2026-05-07 04:05 | 8.62160 | 124.57823 | 1815 ft | 145 kts | 268° |
| 2026-05-07 04:06 | 8.62077 | 124.56811 | 1798 ft | 144 kts | 268° |
| 2026-05-07 04:06 | 8.61998 | 124.55799 | 1802 ft | 144 kts | 268° |
| 2026-05-07 04:06 | 8.61922 | 124.54780 | 1773 ft | 145 kts | 269° |
| 2026-05-07 04:06 | 8.61848 | 124.53773 | 1601 ft | 144 kts | 269° |
| 2026-05-07 04:07 | 8.61769 | 124.52760 | 1406 ft | 144 kts | 268° |
| 2026-05-07 04:07 | 8.61684 | 124.51754 | 1215 ft | 144 kts | 268° |
| 2026-05-07 04:07 | 8.61600 | 124.50749 | 1052 ft | 144 kts | 269° |
| 2026-05-07 04:07 | 8.61517 | 124.49741 | 832 ft | 143 kts | 270° |
| 2026-05-07 04:08 | 8.61447 | 124.48746 | 689 ft | 143 kts | 270° |
| 2026-05-07 04:08 | 8.61381 | 124.47743 | 463 ft | 142 kts | 269° |
| 2026-05-07 04:08 | 8.61303 | 124.46752 | 275 ft | 142 kts | 270° |
| 2026-05-07 04:08 | 8.61232 | 124.45785 | 199 ft | 126 kts | 267° |
| 2026-05-07 04:09 | 8.61176 | 124.45076 | 198 ft | 63 kts | 264° |
| 2026-05-07 04:09 | 8.61152 | 124.44826 | 198 ft | 17 kts | 254° |
| 2026-05-07 04:09 | 8.61114 | 124.44729 | 198 ft | 9 kts | 321° |
| 2026-05-07 04:09 | 8.61152 | 124.44781 | 198 ft | 11 kts | 82° |
| 2026-05-07 04:10 | 8.61160 | 124.44871 | 198 ft | 13 kts | 85° |
| 2026-05-07 04:10 | 8.61166 | 124.44968 | 198 ft | 14 kts | 85° |
| 2026-05-07 04:10 | 8.61176 | 124.45077 | 198 ft | 16 kts | 85° |
| 2026-05-07 04:10 | 8.61185 | 124.45197 | 198 ft | 17 kts | 85° |
| 2026-05-07 04:11 | 8.61196 | 124.45325 | 198 ft | 18 kts | 84° |
| 2026-05-07 04:11 | 8.61208 | 124.45462 | 198 ft | 19 kts | 84° |
| 2026-05-07 04:11 | 8.61200 | 124.45570 | 198 ft | 15 kts | 120° |
| 2026-05-07 04:11 | 8.61114 | 124.45606 | 198 ft | 14 kts | 174° |
| 2026-05-07 04:12 | 8.61011 | 124.45615 | 198 ft | 15 kts | 156° |
| 2026-05-07 04:12 | 8.60988 | 124.45709 | 198 ft | 12 kts | 83° |
| 2026-05-07 04:12 | 8.60967 | 124.45766 | 198 ft | 4 kts | 145° |
| 2026-05-07 04:12 | 8.60943 | 124.45775 | 198 ft | 3 kts | 171° |
| 2026-05-07 04:13 | 8.60915 | 124.45779 | 198 ft | 3 kts | 173° |
| 2026-05-07 04:13 | 8.60909 | 124.45779 | 198 ft | 0 kts | 173° |